createdAt,value
2019-05-11T00:00:56.588Z,100221.67
2019-05-11T00:03:25.865Z,100221.45
2019-05-11T00:06:06.265Z,100223.44
2019-05-11T00:08:35.565Z,100223.44
2019-05-11T00:11:04.867Z,100227.21
2019-05-11T00:16:22.424Z,100232.94
2019-05-11T00:18:51.703Z,100237.59
2019-05-11T00:21:21.170Z,100230.95
2019-05-11T00:23:50.487Z,100247.64
2019-05-11T00:26:38.834Z,100248.73
2019-05-11T00:29:08.150Z,100246.09
2019-05-11T00:31:56.490Z,100248.23
2019-05-11T00:34:44.820Z,100248.23
2019-05-11T00:37:14.603Z,100257.92
2019-05-11T00:39:43.882Z,100252.74
2019-05-11T00:42:13.175Z,100262.47
2019-05-11T00:44:43.059Z,100256.42
2019-05-11T00:47:12.376Z,100264.31
2019-05-11T00:49:41.665Z,100261.30
2019-05-11T00:52:10.956Z,100256.57
2019-05-11T00:54:40.255Z,100258.45
2019-05-11T00:57:09.546Z,100257.66
2019-05-11T00:59:38.845Z,100265.16
2019-05-11T01:05:01.902Z,100261.22
2019-05-11T01:07:31.200Z,100257.52
2019-05-11T01:10:00.479Z,100263.14
2019-05-11T01:12:29.766Z,100270.51
2019-05-11T01:14:59.065Z,100268.26
2019-05-11T01:17:47.403Z,100273.14
2019-05-11T01:20:56.017Z,100281.03
2019-05-11T01:26:13.633Z,100279.86
2019-05-11T01:28:42.947Z,100284.81
2019-05-11T01:31:12.239Z,100278.84
2019-05-11T01:34:00.586Z,100288.04
2019-05-11T01:36:41.034Z,100286.34
2019-05-11T01:39:10.357Z,100289.57
2019-05-11T01:41:39.649Z,100299.30
2019-05-11T01:44:08.930Z,100292.42
2019-05-11T01:46:38.230Z,100294.26
2019-05-11T01:49:07.523Z,100292.19
2019-05-11T01:51:36.812Z,100291.80
2019-05-11T01:54:06.088Z,100304.16
2019-05-11T01:56:35.387Z,100291.16
2019-05-11T01:59:23.723Z,100294.30
2019-05-11T02:01:53.043Z,100299.19
2019-05-11T02:04:22.342Z,100295.77
2019-05-11T02:06:51.657Z,100294.14
2019-05-11T02:09:20.950Z,100290.65
2019-05-11T02:14:25.376Z,100293.28
2019-05-11T02:16:54.716Z,100294.21
2019-05-11T02:19:24.053Z,100296.98
2019-05-11T02:21:53.314Z,100297.50
2019-05-11T02:24:22.606Z,100293.63
2019-05-11T02:26:51.916Z,100299.89
2019-05-11T02:29:21.206Z,100302.52
2019-05-11T02:31:50.546Z,100303.45
2019-05-11T02:34:19.860Z,100306.22
2019-05-11T02:36:49.161Z,100305.42
2019-05-11T02:39:18.455Z,100308.05
2019-05-11T02:41:47.749Z,100309.95
2019-05-11T02:44:17.037Z,100309.13
2019-05-11T02:46:46.336Z,100311.34
2019-05-11T02:49:15.640Z,100305.70
2019-05-11T02:51:45.028Z,100312.34
2019-05-11T02:54:14.315Z,100308.40
2019-05-11T02:56:43.596Z,100310.72
2019-05-11T02:59:12.876Z,100311.09
2019-05-11T03:02:01.067Z,100311.09
2019-05-11T03:04:30.358Z,100308.98
2019-05-11T03:06:59.654Z,100314.31
2019-05-11T03:09:28.939Z,100317.56
2019-05-11T03:11:58.268Z,100318.48
2019-05-11T03:14:27.542Z,100312.44
2019-05-11T03:17:15.733Z,100325.33
2019-05-11T03:19:45.027Z,100322.36
2019-05-11T03:25:02.653Z,100321.91
2019-05-11T03:27:31.950Z,100323.22
2019-05-11T03:30:02.212Z,100320.28
2019-05-11T03:32:32.553Z,100324.67
2019-05-11T03:37:50.111Z,100324.94
2019-05-11T03:42:54.024Z,100327.81
2019-05-11T03:45:23.335Z,100333.86
2019-05-11T03:47:52.625Z,100339.11
2019-05-11T03:50:40.950Z,100339.56
2019-05-11T03:53:10.237Z,100342.12
2019-05-11T03:55:39.530Z,100339.91
2019-05-11T03:58:08.831Z,100342.92
2019-05-11T04:00:38.109Z,100339.77
2019-05-11T04:03:07.453Z,100346.72
2019-05-11T04:05:36.793Z,100354.47
2019-05-11T04:08:06.362Z,100343.03
2019-05-11T04:10:35.665Z,100353.78
2019-05-11T04:15:54.945Z,100351.78
2019-05-11T04:18:24.278Z,100352.75
2019-05-11T04:20:53.569Z,100351.51
2019-05-11T04:23:22.890Z,100351.38
2019-05-11T04:25:52.172Z,100355.66
2019-05-11T04:28:21.449Z,100355.03
2019-05-11T04:30:50.746Z,100358.45
2019-05-11T04:33:20.051Z,100353.44
2019-05-11T04:35:49.329Z,100362.50
2019-05-11T04:38:18.599Z,100368.80
2019-05-11T04:41:06.937Z,100367.72
2019-05-11T04:43:36.226Z,100374.56
2019-05-11T04:46:05.497Z,100338.61
2019-05-11T04:51:09.597Z,100387.14
2019-05-11T04:53:38.844Z,100379.87
2019-05-11T04:56:08.111Z,100383.67
2019-05-11T04:58:37.390Z,100386.42
2019-05-11T05:01:06.711Z,100393.63
2019-05-11T05:03:57.775Z,100387.85
2019-05-11T05:06:26.177Z,100387.85
2019-05-11T05:08:58.220Z,100391.20
2019-05-11T05:11:30.704Z,100396.17
2019-05-11T05:14:02.133Z,100399.34
2019-05-11T05:16:31.295Z,100400.05
2019-05-11T05:18:59.624Z,100404.64
2019-05-11T05:21:28.910Z,100395.17
2019-05-11T05:24:17.272Z,100396.19
2019-05-11T05:26:46.556Z,100396.19
2019-05-11T05:29:15.837Z,100407.47
2019-05-11T05:31:45.126Z,100412.59
2019-05-11T05:34:14.397Z,100412.81
2019-05-11T05:36:43.689Z,100417.25
2019-05-11T05:39:12.978Z,100422.06
2019-05-11T05:41:42.544Z,100416.34
2019-05-11T05:44:13.269Z,100416.64
2019-05-11T05:46:42.572Z,100430.22
2019-05-11T05:49:11.855Z,100426.72
2019-05-11T05:51:41.131Z,100426.41
2019-05-11T05:54:10.405Z,100434.02
2019-05-11T05:56:39.693Z,100436.71
2019-05-11T05:59:08.969Z,100436.71
2019-05-11T06:01:38.313Z,100436.56
2019-05-11T06:04:26.628Z,100439.04
2019-05-11T06:06:55.909Z,100436.63
2019-05-11T06:09:25.182Z,100445.31
2019-05-11T06:11:54.460Z,100442.52
2019-05-11T06:14:23.745Z,100444.84
2019-05-11T06:16:53.181Z,100445.31
2019-05-11T06:19:22.460Z,100450.11
2019-05-11T06:21:51.745Z,100453.50
2019-05-11T06:24:21.021Z,100458.45
2019-05-11T06:26:50.369Z,100463.41
2019-05-11T06:32:33.997Z,100467.87
2019-05-11T06:35:03.346Z,100471.88
2019-05-11T06:37:32.668Z,100484.37
2019-05-11T06:42:36.501Z,100491.42
2019-05-11T06:45:05.930Z,100496.20
2019-05-11T06:47:35.271Z,100494.47
2019-05-11T06:50:05.030Z,100488.36
2019-05-11T06:52:34.379Z,100493.98
2019-05-11T06:55:03.709Z,100490.69
2019-05-11T06:57:33.055Z,100496.64
2019-05-11T07:00:02.351Z,100496.14
2019-05-11T07:02:31.648Z,100496.62
2019-05-11T07:05:00.912Z,100510.36
2019-05-11T07:07:45.279Z,100507.92
2019-05-11T07:10:01.204Z,100507.76
2019-05-11T07:12:30.493Z,100512.70
2019-05-11T07:14:59.774Z,100512.83
2019-05-11T07:17:29.068Z,100511.18
2019-05-11T07:19:58.372Z,100501.78
2019-05-11T07:22:27.683Z,100511.44
2019-05-11T07:24:57.002Z,100508.37
2019-05-11T07:27:26.284Z,100512.64
2019-05-11T07:29:55.613Z,100515.88
2019-05-11T07:32:26.067Z,100522.14
2019-05-11T07:34:57.731Z,100523.83
2019-05-11T07:37:28.000Z,100528.39
2019-05-11T07:39:58.208Z,100524.64
2019-05-11T07:42:29.037Z,100530.73
2019-05-11T07:44:58.427Z,100533.11
2019-05-11T07:47:27.947Z,100529.64
2019-05-11T07:49:58.682Z,100530.60
2019-05-11T07:52:28.735Z,100529.47
2019-05-11T07:54:59.001Z,100526.45
2019-05-11T07:57:28.542Z,100538.95
2019-05-11T07:59:58.044Z,100542.77
2019-05-11T08:02:28.502Z,100535.60
2019-05-11T08:04:58.768Z,100543.36
2019-05-11T08:07:29.436Z,100538.64
2019-05-11T08:09:58.882Z,100544.31
2019-05-11T08:12:28.674Z,100542.80
2019-05-11T08:15:08.152Z,100544.89
2019-05-11T08:17:30.216Z,100550.83
2019-05-11T08:19:59.512Z,100549.23
2019-05-11T08:22:28.796Z,100550.16
2019-05-11T08:24:58.701Z,100558.50
2019-05-11T08:27:48.626Z,100568.44
2019-05-11T08:30:30.475Z,100567.20
2019-05-11T08:32:59.841Z,100574.85
2019-05-11T08:35:31.275Z,100577.23
2019-05-11T08:38:00.238Z,100579.77
2019-05-11T08:40:29.527Z,100568.55
2019-05-11T08:43:00.617Z,100569.56
2019-05-11T08:45:29.906Z,100566.44
2019-05-11T08:47:59.274Z,100577.80
2019-05-11T08:50:28.592Z,100573.83
2019-05-11T08:52:58.290Z,100571.28
2019-05-11T08:55:29.174Z,100567.95
2019-05-11T08:58:00.113Z,100575.42
2019-05-11T09:00:29.661Z,100576.30
2019-05-11T09:02:58.962Z,100579.09
2019-05-11T09:05:28.314Z,100567.83
2019-05-11T09:07:57.962Z,100571.52
2019-05-11T09:10:28.628Z,100577.58
2019-05-11T09:12:59.048Z,100579.23
2019-05-11T09:15:36.471Z,100578.74
2019-05-11T09:18:00.049Z,100581.06
2019-05-11T09:20:29.346Z,100541.59
2019-05-11T09:22:59.099Z,100586.66
2019-05-11T09:25:29.756Z,100584.20
2019-05-11T09:27:59.043Z,100589.59
2019-05-11T09:30:28.939Z,100592.33
2019-05-11T09:32:59.429Z,100585.25
2019-05-11T09:35:29.344Z,100603.54
2019-05-11T09:37:59.791Z,100604.67
2019-05-11T09:40:29.110Z,100605.41
2019-05-11T09:42:58.720Z,100604.86
2019-05-11T09:45:27.995Z,100608.45
2019-05-11T09:47:58.187Z,100614.52
2019-05-11T09:53:17.708Z,100621.41
2019-05-11T09:55:48.289Z,100623.86
2019-05-11T09:58:19.784Z,100621.98
2019-05-11T10:00:48.610Z,100622.81
2019-05-11T10:03:18.784Z,100622.82
2019-05-11T10:08:38.070Z,100626.48
2019-05-11T10:11:08.531Z,100634.36
2019-05-11T10:13:39.251Z,100621.30
2019-05-11T10:16:10.740Z,100624.53
2019-05-11T10:18:39.567Z,100631.55
2019-05-11T10:21:08.873Z,100637.04
2019-05-11T10:23:40.513Z,100639.20
2019-05-11T10:26:09.184Z,100654.45
2019-05-11T10:28:39.012Z,100655.77
2019-05-11T10:31:09.540Z,100660.70
2019-05-11T10:33:38.810Z,100670.55
2019-05-11T10:36:08.430Z,100665.15
2019-05-11T10:38:39.141Z,100660.13
2019-05-11T10:41:08.855Z,100662.59
2019-05-11T10:43:39.497Z,100656.64
2019-05-11T10:46:17.076Z,100658.70
2019-05-11T10:48:39.807Z,100664.48
2019-05-11T10:51:09.069Z,100658.89
2019-05-11T10:53:38.566Z,100662.47
2019-05-11T10:56:08.788Z,100658.80
2019-05-11T10:58:38.970Z,100664.22
2019-05-11T11:01:08.937Z,100664.11
2019-05-11T11:03:39.278Z,100662.95
2019-05-11T11:06:08.648Z,100667.41
2019-05-11T11:08:38.402Z,100672.81
2019-05-11T11:11:08.935Z,100675.09
2019-05-11T11:13:38.772Z,100673.67
2019-05-11T11:16:09.364Z,100690.99
2019-05-11T11:18:38.673Z,100678.70
2019-05-11T11:21:08.711Z,100676.86
2019-05-11T11:23:39.006Z,100684.55
2019-05-11T11:26:08.412Z,100681.52
2019-05-11T11:28:38.393Z,100685.88
2019-05-11T11:31:08.749Z,100690.99
2019-05-11T11:33:58.455Z,100698.92
2019-05-11T11:36:28.501Z,100697.72
2019-05-11T11:38:58.968Z,100689.47
2019-05-11T11:41:30.048Z,100682.19
2019-05-11T11:43:59.258Z,100690.88
2019-05-11T11:46:28.535Z,100706.69
2019-05-11T11:48:58.182Z,100703.86
2019-05-11T11:51:28.824Z,100707.46
2019-05-11T11:53:58.479Z,100703.95
2019-05-11T11:56:29.106Z,100704.34
2019-05-11T11:58:58.405Z,100705.75
2019-05-11T12:01:28.171Z,100713.71
2019-05-11T12:03:58.714Z,100712.02
2019-05-11T12:06:28.209Z,100717.22
2019-05-11T12:08:58.515Z,100722.88
2019-05-11T12:11:28.462Z,100722.03
2019-05-11T12:13:58.060Z,100714.67
2019-05-11T12:16:28.185Z,100715.69
2019-05-11T12:18:58.393Z,100719.30
2019-05-11T12:21:27.836Z,100718.44
2019-05-11T12:23:58.488Z,100733.01
2019-05-11T12:26:28.298Z,100728.02
2019-05-11T12:28:59.107Z,100730.20
2019-05-11T12:31:32.116Z,100729.81
2019-05-11T12:33:59.401Z,100729.23
2019-05-11T12:41:59.428Z,100728.77
2019-05-11T12:44:28.707Z,100737.84
2019-05-11T12:46:58.496Z,100745.45
2019-05-11T12:49:29.125Z,100743.81
2019-05-11T12:51:58.563Z,100740.23
2019-05-11T12:54:28.169Z,100740.61
2019-05-11T12:56:58.880Z,100749.31
2019-05-11T12:59:28.199Z,100770.16
2019-05-11T13:01:58.984Z,100752.52
2019-05-11T13:04:28.506Z,100760.84
2019-05-11T13:06:58.282Z,100760.66
2019-05-11T13:09:29.002Z,100766.55
2019-05-11T13:11:58.851Z,100771.66
2019-05-11T13:14:29.302Z,100771.75
2019-05-11T13:16:59.138Z,100771.47
2019-05-11T13:19:29.619Z,100781.33
2019-05-11T13:21:59.149Z,100767.86
2019-05-11T13:24:28.442Z,100768.94
2019-05-11T13:26:59.748Z,100788.45
2019-05-11T13:32:04.053Z,100775.09
2019-05-11T13:34:33.384Z,100776.05
2019-05-11T13:37:02.658Z,100778.70
2019-05-11T13:39:31.963Z,100776.50
2019-05-11T13:42:01.273Z,100781.47
2019-05-11T13:44:30.573Z,100769.23
2019-05-11T13:46:59.891Z,100776.63
2019-05-11T13:49:32.369Z,100782.13
2019-05-11T13:54:41.316Z,100788.34
2019-05-11T13:57:10.632Z,100786.09
2019-05-11T14:02:28.615Z,100790.27
2019-05-11T14:04:59.304Z,100789.30
2019-05-11T14:07:28.649Z,100799.89
2019-05-11T14:09:58.901Z,100794.59
2019-05-11T14:12:28.978Z,100795.19
2019-05-11T14:14:58.273Z,100802.94
2019-05-11T14:17:31.220Z,100780.68
2019-05-11T14:20:18.984Z,100798.66
2019-05-11T14:28:11.290Z,100803.70
2019-05-11T14:30:40.601Z,100799.72
2019-05-11T14:33:09.920Z,100806.55
2019-05-11T14:35:39.203Z,100809.10
2019-05-11T14:38:08.522Z,100803.50
2019-05-11T14:40:38.786Z,100804.88
2019-05-11T14:43:09.275Z,100810.09
2019-05-11T14:45:38.565Z,100801.66
2019-05-11T14:48:22.175Z,100802.29
2019-05-11T14:50:38.888Z,100806.87
2019-05-11T14:53:08.755Z,100805.14
2019-05-11T14:55:39.213Z,100802.29
2019-05-11T14:58:08.567Z,100812.12
2019-05-11T15:00:39.227Z,100815.94
2019-05-11T15:03:08.950Z,100811.59
2019-05-11T15:05:58.224Z,100830.58
2019-05-11T15:08:28.778Z,100825.65
2019-05-11T15:10:59.190Z,100817.88
2019-05-11T15:13:28.916Z,100819.58
2019-05-11T15:15:59.531Z,100824.50
2019-05-11T15:18:38.547Z,100813.09
2019-05-11T15:20:59.838Z,100816.58
2019-05-11T15:23:29.135Z,100818.53
2019-05-11T15:25:58.791Z,100821.19
2019-05-11T15:28:29.473Z,100821.05
2019-05-11T15:30:58.888Z,100818.89
2019-05-11T15:33:35.408Z,100813.28
2019-05-11T15:36:04.702Z,100818.42
2019-05-11T15:38:34.073Z,100825.65
2019-05-11T15:41:03.366Z,100825.57
2019-05-11T15:43:32.705Z,100825.84
2019-05-11T15:46:02.040Z,100836.08
2019-05-11T15:48:31.342Z,100828.39
2019-05-11T15:51:00.644Z,100838.94
2019-05-11T15:53:29.926Z,100842.37
2019-05-11T15:55:59.850Z,100844.34
2019-05-11T15:58:30.216Z,100845.38
2019-05-11T16:00:59.519Z,100846.48
2019-05-11T16:03:28.850Z,100850.08
2019-05-11T16:05:58.325Z,100864.69
2019-05-11T16:08:28.312Z,100859.94
2019-05-11T16:10:58.621Z,100858.26
2019-05-11T16:13:28.450Z,100864.33
2019-05-11T16:15:58.963Z,100865.39
2019-05-11T16:18:48.357Z,100871.52
2019-05-11T16:21:18.402Z,100870.22
2019-05-11T16:23:48.064Z,100886.89
2019-05-11T16:26:18.706Z,100883.98
2019-05-11T16:28:48.051Z,100890.70
2019-05-11T16:33:52.826Z,100888.98
2019-05-11T16:36:22.182Z,100896.03
2019-05-11T16:38:51.483Z,100897.74
2019-05-11T16:41:21.189Z,100899.73
2019-05-11T16:43:51.793Z,100894.14
2019-05-11T16:46:21.141Z,100899.47
2019-05-11T16:48:50.455Z,100896.62
2019-05-11T16:51:19.761Z,100900.20
2019-05-11T16:53:49.113Z,100899.08
2019-05-11T16:56:19.675Z,100903.78
2019-05-11T16:58:49.512Z,100902.66
2019-05-11T17:01:19.018Z,100907.61
2019-05-11T17:03:49.831Z,100909.97
2019-05-11T17:06:19.842Z,100913.00
2019-05-11T17:08:50.224Z,100919.14
2019-05-11T17:14:14.340Z,100928.02
2019-05-11T17:16:43.631Z,100924.95
2019-05-11T17:19:12.939Z,100922.39
2019-05-11T17:21:42.253Z,100921.25
2019-05-11T17:24:11.584Z,100924.91
2019-05-11T17:26:40.891Z,100928.89
2019-05-11T17:29:10.215Z,100927.05
2019-05-11T17:31:39.487Z,100928.87
2019-05-11T17:34:09.196Z,100928.45
2019-05-11T17:36:39.834Z,100921.02
2019-05-11T17:39:09.118Z,100926.02
2019-05-11T17:41:38.879Z,100929.68
2019-05-11T17:44:09.490Z,100930.11
2019-05-11T17:46:38.802Z,100926.59
2019-05-11T17:49:08.128Z,100932.16
2019-05-11T17:51:37.879Z,100937.80
2019-05-11T17:54:11.146Z,100947.23
2019-05-11T17:56:39.901Z,100945.64
2019-05-11T17:59:09.208Z,100942.88
2019-05-11T18:01:38.508Z,100940.61
2019-05-11T18:04:08.217Z,100940.41
2019-05-11T18:06:38.887Z,100947.57
2019-05-11T18:09:08.759Z,100951.96
2019-05-11T18:11:39.321Z,100948.41
2019-05-11T18:14:08.658Z,100961.19
2019-05-11T18:16:38.060Z,100956.76
2019-05-11T18:19:08.566Z,100951.25
2019-05-11T18:21:38.801Z,100956.79
2019-05-11T18:24:09.509Z,100954.30
2019-05-11T18:26:38.811Z,100960.70
2019-05-11T18:29:28.821Z,100958.91
2019-05-11T18:31:58.233Z,100969.81
2019-05-11T18:34:27.518Z,100966.56
2019-05-11T18:36:57.821Z,100971.38
2019-05-11T18:39:28.672Z,100972.48
2019-05-11T18:41:58.888Z,100971.84
2019-05-11T18:44:48.213Z,100979.17
2019-05-11T18:47:18.514Z,100968.50
2019-05-11T18:49:49.253Z,100970.28
2019-05-11T18:52:18.904Z,100967.03
2019-05-11T18:55:08.393Z,100973.56
2019-05-11T18:57:38.447Z,100977.11
2019-05-11T19:03:10.691Z,100976.47
2019-05-11T19:05:39.981Z,100971.02
2019-05-11T19:08:09.286Z,100978.30
2019-05-11T19:10:38.571Z,100979.92
2019-05-11T19:13:28.186Z,100979.07
2019-05-11T19:15:58.392Z,100981.06
2019-05-11T19:18:28.806Z,100986.48
2019-05-11T19:20:58.723Z,100984.14
2019-05-11T19:23:29.225Z,100987.06
2019-05-11T19:25:58.525Z,100986.79
2019-05-11T19:28:28.197Z,100986.37
2019-05-11T19:30:59.317Z,100982.63
2019-05-11T19:33:29.854Z,100979.16
2019-05-11T19:35:59.216Z,100981.03
2019-05-11T19:38:28.555Z,100983.41
2019-05-11T19:40:58.807Z,100988.44
2019-05-11T19:43:29.074Z,100990.03
2019-05-11T19:45:58.502Z,100991.11
2019-05-11T19:48:28.171Z,100995.34
2019-05-11T19:51:07.504Z,101001.69
2019-05-11T19:53:30.497Z,101001.41
2019-05-11T19:56:18.695Z,101002.86
2019-05-11T19:58:48.497Z,100998.13
2019-05-11T20:01:19.154Z,101009.20
2019-05-11T20:03:48.476Z,101003.27
2019-05-11T20:06:17.741Z,100998.12
2019-05-11T20:08:47.058Z,101002.38
2019-05-11T20:11:18.529Z,101009.03
2019-05-11T20:14:08.066Z,101011.80
2019-05-11T20:16:37.364Z,101012.90
2019-05-11T20:19:08.639Z,101015.66
2019-05-11T20:21:38.159Z,101012.26
2019-05-11T20:24:08.752Z,101018.17
2019-05-11T20:26:38.098Z,101009.59
2019-05-11T20:29:27.729Z,101007.50
2019-05-11T20:31:57.904Z,101009.72
2019-05-11T20:34:29.001Z,101009.34
2019-05-11T20:36:59.501Z,101013.80
2019-05-11T20:39:28.888Z,101013.87
2019-05-11T20:41:58.256Z,101020.94
2019-05-11T20:44:28.726Z,101028.97
2019-05-11T20:46:58.638Z,101028.23
2019-05-11T20:49:28.366Z,101027.78
2019-05-11T20:51:58.994Z,101033.63
2019-05-11T20:54:28.320Z,101027.64
2019-05-11T20:56:58.483Z,101033.55
2019-05-11T20:59:29.113Z,101040.14
2019-05-11T21:01:59.655Z,101043.70
2019-05-11T21:04:29.022Z,101043.34
2019-05-11T21:06:58.652Z,101043.47
2019-05-11T21:09:29.000Z,101041.83
2019-05-11T21:11:59.178Z,101031.21
2019-05-11T21:14:29.966Z,101047.02
2019-05-11T21:16:59.287Z,101040.19
2019-05-11T21:19:28.658Z,101052.86
2019-05-11T21:21:58.943Z,101051.78
2019-05-11T21:24:28.994Z,101052.83
2019-05-11T21:26:58.639Z,101052.02
2019-05-11T21:29:31.224Z,101048.45
2019-05-11T21:31:59.256Z,101058.60
2019-05-11T21:34:30.045Z,101054.77
2019-05-11T21:40:08.742Z,101060.27
2019-05-11T21:42:39.390Z,101070.92
2019-05-11T21:45:49.622Z,101077.63
2019-05-11T21:48:18.907Z,101067.75
2019-05-11T21:50:48.194Z,101079.70
2019-05-11T21:53:18.485Z,101089.81
2019-05-11T21:56:00.694Z,101086.38
2019-05-11T21:58:30.003Z,101086.38
2019-05-11T22:00:59.287Z,101097.80
2019-05-11T22:03:28.579Z,101089.23
2019-05-11T22:06:16.947Z,101090.66
2019-05-11T22:08:48.235Z,101090.66
2019-05-11T22:11:29.326Z,101094.83
2019-05-11T22:13:58.637Z,101094.83
2019-05-11T22:16:48.008Z,101103.84
2019-05-11T22:19:18.052Z,101103.84
2019-05-11T22:21:49.428Z,101111.80
2019-05-11T22:24:37.465Z,101115.41
2019-05-11T22:27:08.111Z,101116.55
2019-05-11T22:29:38.875Z,101123.84
2019-05-11T22:37:50.693Z,101129.69
2019-05-11T22:42:54.947Z,101139.79
2019-05-11T22:45:24.240Z,101142.73
2019-05-11T22:47:53.533Z,101131.30
2019-05-11T22:50:22.813Z,101148.78
2019-05-11T22:52:52.154Z,101148.98
2019-05-11T22:55:21.424Z,101150.10
2019-05-11T22:57:50.752Z,101159.00
2019-05-11T23:03:35.402Z,101159.14
2019-05-11T23:06:04.719Z,101162.53
2019-05-11T23:08:34.031Z,101165.84
2019-05-11T23:11:03.338Z,101169.56
2019-05-11T23:13:32.673Z,101168.44
2019-05-11T23:16:01.969Z,101169.23
2019-05-11T23:18:31.269Z,101171.99
2019-05-11T23:21:00.578Z,101180.92
2019-05-11T23:23:29.866Z,101185.47
2019-05-11T23:25:59.157Z,101186.99
2019-05-11T23:28:48.667Z,101199.02
2019-05-11T23:31:18.528Z,101198.27
2019-05-11T23:33:47.857Z,101190.13
2019-05-11T23:36:18.311Z,101194.14
2019-05-11T23:38:48.166Z,101195.18
2019-05-11T23:41:24.792Z,101197.05
2019-05-11T23:43:48.481Z,101206.80
2019-05-11T23:46:17.777Z,101206.08
2019-05-11T23:48:48.676Z,101202.70
2019-05-11T23:51:18.271Z,101207.16
2019-05-11T23:53:48.009Z,101209.86
2019-05-11T23:56:18.588Z,101208.70
2019-05-11T23:58:48.396Z,101217.16
